Time;durP1;ratioP1;P1;durP2;ratioP2;P2;SDS_P1;SDS_P2;PMS_P1;PMS_P2;Temp;Humidity;BMP_temperature;BMP_pressure;BME280_temperature;BME280_humidity;BME280_pressure;Samples;Min_cycle;Max_cycle;Signal;HPM_P1;HPM_P2
2021/05/20 10:43:41;;;;;;;0.30;0.20;;;18.70;55.70;;;;;;5092802;27;20381;-83
2021/05/20 10:46:12;;;;;;;0.20;0.10;;;18.50;55.70;;;;;;5068621;28;20031;-85
2021/05/20 10:48:52;;;;;;;0.20;0.10;;;18.70;55.20;;;;;;5066820;28;20063;-83
2021/05/20 10:51:25;;;;;;;0.25;0.20;;;18.60;54.40;;;;;;5073239;28;20020;-83
2021/05/20 10:54:04;;;;;;;0.43;0.20;;;18.70;54.50;;;;;;5112413;28;20056;-82
2021/05/20 10:56:32;;;;;;;0.30;0.20;;;18.70;53.30;;;;;;5098128;28;20178;-80
2021/05/20 10:59:01;;;;;;;0.35;0.15;;;18.90;54.00;;;;;;5073278;28;20020;-80
2021/05/20 11:01:30;;;;;;;0.32;0.20;;;18.90;53.50;;;;;;5072066;28;20029;-83
2021/05/20 11:04:04;;;;;;;0.20;0.10;;;19.10;53.90;;;;;;5086435;28;20103;-82
2021/05/20 11:06:35;;;;;;;0.25;0.20;;;19.20;53.70;;;;;;5067930;28;20134;-81
2021/05/20 11:09:06;;;;;;;0.30;0.20;;;19.30;53.90;;;;;;5082137;28;20025;-82
2021/05/20 11:11:32;;;;;;;0.10;0.10;;;19.40;54.60;;;;;;5068863;28;20094;-80
2021/05/20 11:14:01;;;;;;;0.38;0.20;;;19.10;54.10;;;;;;5073853;28;20040;-79
2021/05/20 11:16:30;;;;;;;0.20;0.10;;;19.00;55.10;;;;;;5068331;28;20032;-80
2021/05/20 11:22:01;;;;;;;0.40;0.20;;;18.80;51.00;;;;;;5063891;28;20036;-86
2021/05/20 11:24:28;;;;;;;0.17;0.10;;;18.70;51.10;;;;;;5093829;28;20039;-82
2021/05/20 11:26:59;;;;;;;0.28;0.20;;;18.80;52.20;;;;;;5064964;28;20017;-79
2021/05/20 11:29:32;;;;;;;0.20;0.10;;;18.90;52.20;;;;;;5064117;28;20486;-79
2021/05/20 11:32:05;;;;;;;0.30;0.10;;;18.90;52.10;;;;;;5066141;28;20024;-80
2021/05/20 11:36:57;;;;;;;0.30;0.20;;;18.70;52.00;;;;;;5067577;28;20117;-80
2021/05/20 11:39:23;;;;;;;0.25;0.20;;;18.80;52.50;;;;;;5065343;28;20036;-79
2021/05/20 11:41:50;;;;;;;0.10;0.10;;;19.00;52.20;;;;;;5065427;28;20526;-79
2021/05/20 11:44:19;;;;;;;0.15;0.10;;;19.10;52.80;;;;;;5063600;28;20151;-80
2021/05/20 11:47:05;;;;;;;0.30;0.13;;;19.20;52.30;;;;;;5078665;28;20029;-80
2021/05/20 11:49:31;;;;;;;0.20;0.20;;;18.90;53.50;;;;;;5077519;28;20020;-80
2021/05/20 11:52:02;;;;;;;0.50;0.25;;;18.80;53.50;;;;;;5063167;28;20028;-81
2021/05/20 11:54:32;;;;;;;0.20;0.20;;;18.70;53.40;;;;;;5053623;28;20575;-80
2021/05/20 11:57:01;;;;;;;0.60;0.20;;;18.70;53.90;;;;;;5052791;28;20027;-81
2021/05/20 11:59:38;;;;;;;0.30;0.15;;;18.60;54.20;;;;;;5052760;28;20029;-81
2021/05/20 12:02:18;;;;;;;0.30;0.20;;;18.60;55.00;;;;;;5055137;28;20021;-81
2021/05/20 12:04:45;;;;;;;0.68;0.20;;;18.80;53.70;;;;;;5054088;28;20087;-81
2021/05/20 12:07:18;;;;;;;0.30;0.20;;;18.90;53.80;;;;;;5069755;28;20110;-80
2021/05/20 12:09:44;;;;;;;0.50;0.20;;;19.00;54.60;;;;;;5053859;28;20021;-81
2021/05/20 12:12:11;;;;;;;0.40;0.20;;;19.00;54.70;;;;;;5053026;28;20040;-81
2021/05/20 12:14:38;;;;;;;0.40;0.20;;;19.30;54.90;;;;;;5053323;28;20025;-80
2021/05/20 12:17:11;;;;;;;0.30;0.20;;;19.40;53.60;;;;;;5050538;28;20036;-81
2021/05/20 12:19:53;;;;;;;0.50;0.30;;;19.40;53.20;;;;;;5052395;28;20025;-80
2021/05/20 12:22:27;;;;;;;0.45;0.20;;;19.00;51.20;;;;;;5053196;28;20048;-80
2021/05/20 12:24:55;;;;;;;0.25;0.10;;;18.70;52.80;;;;;;5052352;28;20055;-80
2021/05/20 12:27:21;;;;;;;0.40;0.20;;;18.70;52.50;;;;;;5060578;28;20024;-80
2021/05/20 12:29:50;;;;;;;0.30;0.20;;;18.70;53.00;;;;;;5106605;28;20051;-80
2021/05/20 12:32:41;;;;;;;0.30;0.20;;;18.80;52.80;;;;;;5052009;28;20029;-80
2021/05/20 12:35:27;;;;;;;0.25;0.20;;;19.00;52.50;;;;;;5051554;28;20025;-81
2021/05/20 12:38:11;;;;;;;0.40;0.20;;;19.30;52.50;;;;;;5069198;28;20477;-81
2021/05/20 12:40:45;;;;;;;0.35;0.30;;;19.20;52.50;;;;;;5053611;28;20096;-81
2021/05/20 12:43:16;;;;;;;0.20;0.20;;;19.40;53.80;;;;;;5050307;28;20122;-80
2021/05/20 12:45:52;;;;;;;0.20;0.15;;;19.30;51.20;;;;;;5075899;28;20024;-81
2021/05/20 12:48:29;;;;;;;0.30;0.20;;;19.20;51.60;;;;;;5053148;28;20033;-80
2021/05/20 12:50:56;;;;;;;0.28;0.17;;;19.20;51.60;;;;;;5087533;28;20075;-80
2021/05/20 12:53:43;;;;;;;0.40;0.20;;;19.20;51.90;;;;;;5054901;28;20069;-81
2021/05/20 12:56:27;;;;;;;0.30;0.20;;;19.20;52.70;;;;;;5050026;28;20029;-80
2021/05/20 12:59:02;;;;;;;0.32;0.20;;;19.10;51.70;;;;;;5035886;28;20029;-86
2021/05/20 13:01:49;;;;;;;0.10;0.10;;;19.20;52.40;;;;;;5036224;28;20025;-83
2021/05/20 13:04:22;;;;;;;0.50;0.20;;;19.40;51.50;;;;;;5069570;28;20033;-84
2021/05/20 13:07:05;;;;;;;0.30;0.20;;;19.90;51.40;;;;;;5058048;28;20032;-86
2021/05/20 13:09:33;;;;;;;0.47;0.20;;;19.80;50.20;;;;;;5054988;28;20023;-85
2021/05/20 13:12:02;;;;;;;0.30;0.20;;;20.00;50.90;;;;;;5052815;28;20390;-84
2021/05/20 13:17:06;;;;;;;0.82;0.30;;;20.10;50.50;;;;;;5052953;28;20021;-82
2021/05/20 13:22:20;;;;;;;0.65;0.30;;;20.00;51.10;;;;;;5055277;28;20013;-82
2021/05/20 13:24:48;;;;;;;0.45;0.20;;;20.10;51.50;;;;;;5055559;28;20025;-87
2021/05/20 13:27:15;;;;;;;0.63;0.20;;;20.20;51.20;;;;;;5052425;28;20028;-87
2021/05/20 13:29:46;;;;;;;0.35;0.20;;;20.50;51.90;;;;;;5054966;28;20674;-88
2021/05/20 13:32:18;;;;;;;0.45;0.20;;;20.70;51.10;;;;;;5051525;28;20033;-81
2021/05/20 13:34:44;;;;;;;0.50;0.20;;;20.90;51.00;;;;;;5053132;28;20021;-81
2021/05/20 13:37:10;;;;;;;0.43;0.20;;;20.90;50.50;;;;;;5048128;28;20512;-81
2021/05/20 13:39:36;;;;;;;0.45;0.20;;;20.80;50.20;;;;;;5098329;28;20526;-80
2021/05/20 13:42:02;;;;;;;0.22;0.10;;;20.60;50.30;;;;;;5063861;28;20045;-80
2021/05/20 13:44:28;;;;;;;0.50;0.20;;;20.30;50.60;;;;;;5045230;28;20045;-80
2021/05/20 13:46:53;;;;;;;0.30;0.20;;;20.10;50.60;;;;;;5052221;28;20031;-80
2021/05/20 13:49:19;;;;;;;0.50;0.20;;;20.10;52.20;;;;;;5052594;28;20027;-81
2021/05/20 13:51:51;;;;;;;0.63;0.20;;;20.10;51.80;;;;;;5050234;28;20036;-81
2021/05/20 13:54:16;;;;;;;0.80;0.30;;;20.10;50.50;;;;;;5054258;28;20656;-80
2021/05/20 13:56:42;;;;;;;0.93;0.20;;;20.10;51.30;;;;;;5052736;28;20082;-80
2021/05/20 13:59:08;;;;;;;0.75;0.28;;;20.20;51.60;;;;;;5059442;28;20036;-80
2021/05/20 14:01:37;;;;;;;0.65;0.32;;;20.10;51.50;;;;;;5079985;28;20052;-81
2021/05/20 14:04:11;;;;;;;0.73;0.30;;;19.90;52.10;;;;;;5094966;28;20036;-81
2021/05/20 14:06:37;;;;;;;1.50;0.20;;;19.80;53.00;;;;;;5060334;28;20112;-80
2021/05/20 14:09:04;;;;;;;0.57;0.20;;;19.50;52.20;;;;;;5099438;28;20059;-80
2021/05/20 14:11:30;;;;;;;0.35;0.20;;;19.20;52.50;;;;;;5052661;28;20032;-80
2021/05/20 14:13:57;;;;;;;1.58;0.30;;;19.10;53.30;;;;;;5052969;28;20028;-80
2021/05/20 14:16:23;;;;;;;0.43;0.22;;;19.00;54.70;;;;;;5052533;28;20017;-80
2021/05/20 14:18:48;;;;;;;0.63;0.30;;;18.90;54.70;;;;;;5051916;28;20025;-79
2021/05/20 14:21:20;;;;;;;0.80;0.30;;;18.80;55.30;;;;;;5060090;28;20086;-84
2021/05/20 14:23:46;;;;;;;0.85;0.30;;;19.00;55.50;;;;;;5042585;28;20398;-80
2021/05/20 14:26:12;;;;;;;0.80;0.32;;;19.10;55.40;;;;;;5032825;28;20145;-81
2021/05/20 14:28:38;;;;;;;0.85;0.38;;;19.10;55.70;;;;;;5052560;28;20033;-80
2021/05/20 14:31:04;;;;;;;0.63;0.20;;;19.20;56.50;;;;;;5035652;28;20028;-80
2021/05/20 14:33:29;;;;;;;0.45;0.20;;;19.20;56.90;;;;;;5031545;28;20426;-80
2021/05/20 14:35:55;;;;;;;1.85;0.30;;;19.00;57.30;;;;;;5051601;28;20027;-80
2021/05/20 14:38:21;;;;;;;0.43;0.20;;;18.90;57.30;;;;;;5051022;28;20027;-80
2021/05/20 14:40:46;;;;;;;1.15;0.30;;;18.80;58.20;;;;;;5067707;28;20036;-80
2021/05/20 14:43:12;;;;;;;0.68;0.30;;;18.70;58.90;;;;;;5067552;28;20048;-80
2021/05/20 14:45:38;;;;;;;0.30;0.20;;;18.70;59.20;;;;;;5037116;28;20053;-80
2021/05/20 14:48:05;;;;;;;0.45;0.25;;;18.60;59.10;;;;;;5032121;28;20037;-80
2021/05/20 14:50:33;;;;;;;0.73;0.30;;;18.50;59.00;;;;;;5032812;28;20022;-80
2021/05/20 14:53:09;;;;;;;0.52;0.20;;;18.40;59.00;;;;;;5033464;28;20400;-80
2021/05/20 14:55:43;;;;;;;0.57;0.35;;;18.40;59.30;;;;;;5065315;28;20024;-80
2021/05/20 15:06:21;;;;;;;0.50;0.20;;;18.10;61.50;;;;;;5048757;28;20071;-81
2021/05/20 15:08:50;;;;;;;0.65;0.30;;;18.10;61.50;;;;;;5082727;28;20025;-80
2021/05/20 15:11:24;;;;;;;0.50;0.20;;;18.10;61.40;;;;;;5052160;28;20514;-81
2021/05/20 15:14:04;;;;;;;0.45;0.20;;;18.00;61.80;;;;;;5052208;28;20032;-80
2021/05/20 15:16:34;;;;;;;0.65;0.28;;;17.70;62.50;;;;;;5046087;28;20037;-80
2021/05/20 15:18:59;;;;;;;0.67;0.33;;;17.60;63.30;;;;;;5032219;28;20021;-80
2021/05/20 15:21:25;;;;;;;1.35;0.30;;;17.60;63.70;;;;;;5035319;28;20283;-80
2021/05/20 15:23:51;;;;;;;0.65;0.40;;;17.70;64.00;;;;;;5067681;28;20041;-80
2021/05/20 15:26:17;;;;;;;0.60;0.40;;;17.70;64.10;;;;;;5048321;28;20529;-80
2021/05/20 15:28:43;;;;;;;0.60;0.30;;;17.70;64.50;;;;;;5080957;28;20029;-80
2021/05/20 15:31:08;;;;;;;0.50;0.30;;;17.70;64.70;;;;;;5050724;28;20041;-80
2021/05/20 15:33:38;;;;;;;0.40;0.20;;;17.70;65.00;;;;;;5049841;28;20124;-80
2021/05/20 15:36:05;;;;;;;0.20;0.20;;;17.50;65.30;;;;;;5052561;28;20142;-81
2021/05/20 15:38:31;;;;;;;0.40;0.20;;;17.40;66.00;;;;;;5053398;28;20025;-80
2021/05/20 15:40:57;;;;;;;0.50;0.25;;;17.40;66.50;;;;;;5053303;28;20087;-80
2021/05/20 15:43:24;;;;;;;0.90;0.25;;;17.30;66.80;;;;;;5049289;28;20053;-80
2021/05/20 15:45:58;;;;;;;0.50;0.30;;;17.20;67.60;;;;;;5042205;28;20029;-81
2021/05/20 15:51:09;;;;;;;0.30;0.20;;;17.10;68.20;;;;;;5056226;28;20537;-81
2021/05/20 15:53:35;;;;;;;0.20;0.20;;;17.10;68.30;;;;;;5052576;28;20033;-83
2021/05/20 15:56:02;;;;;;;0.30;0.20;;;16.90;69.00;;;;;;5061129;28;20020;-80
2021/05/20 15:58:27;;;;;;;0.57;0.30;;;16.90;69.70;;;;;;5085321;28;20403;-83
2021/05/20 16:00:53;;;;;;;0.30;0.20;;;16.80;69.90;;;;;;5087523;28;20029;-80
2021/05/20 16:03:19;;;;;;;0.55;0.30;;;16.80;70.70;;;;;;5087509;28;20797;-80
2021/05/20 16:05:45;;;;;;;0.40;0.20;;;16.80;71.20;;;;;;5055699;28;20036;-81
2021/05/20 16:08:22;;;;;;;0.55;0.30;;;16.70;72.50;;;;;;5046009;28;20474;-81
2021/05/20 16:16:18;;;;;;;0.70;0.30;;;16.50;75.60;;;;;;5052797;28;20592;-78
2021/05/20 16:18:44;;;;;;;0.80;0.40;;;16.40;76.50;;;;;;5055457;28;20442;-79
2021/05/20 16:21:11;;;;;;;0.32;0.20;;;16.60;76.20;;;;;;5052316;28;20025;-80
2021/05/20 16:37:19;;;;;;;0.70;0.40;;;17.00;75.40;;;;;;5059569;28;20464;-87
2021/05/20 16:39:44;;;;;;;0.65;0.40;;;17.00;75.20;;;;;;5056626;28;20100;-85
2021/05/20 16:42:10;;;;;;;0.77;0.40;;;17.10;75.10;;;;;;5058203;28;20080;-84
2021/05/20 16:44:36;;;;;;;0.90;0.40;;;17.10;75.50;;;;;;5053632;28;20021;-85
2021/05/20 16:47:01;;;;;;;0.50;0.30;;;17.10;75.30;;;;;;5054597;28;20103;-87
2021/05/20 16:49:27;;;;;;;0.60;0.30;;;17.00;74.90;;;;;;5055115;28;20025;-83
2021/05/20 16:51:59;;;;;;;0.70;0.40;;;17.00;75.20;;;;;;5055345;28;20067;-83
2021/05/20 16:54:29;;;;;;;0.65;0.40;;;17.00;75.90;;;;;;5053883;28;20047;-83
2021/05/20 16:57:06;;;;;;;0.63;0.35;;;17.00;75.70;;;;;;5055356;28;20031;-86
2021/05/20 16:59:33;;;;;;;0.60;0.30;;;17.10;75.70;;;;;;5054946;28;20029;-87
2021/05/20 17:01:59;;;;;;;0.82;0.40;;;17.20;75.20;;;;;;5056180;28;20021;-90
2021/05/20 17:04:25;;;;;;;0.60;0.38;;;17.10;75.40;;;;;;5056519;28;20029;-88
2021/05/20 17:06:51;;;;;;;0.77;0.45;;;17.00;75.40;;;;;;5056517;28;20086;-88
2021/05/20 17:09:18;;;;;;;0.28;0.22;;;17.00;75.30;;;;;;5054019;28;20495;-84
2021/05/20 17:11:44;;;;;;;0.50;0.30;;;17.10;75.10;;;;;;5071951;28;20051;-88
2021/05/20 17:14:10;;;;;;;0.63;0.40;;;17.20;74.30;;;;;;5052761;28;20510;-84
2021/05/20 17:16:35;;;;;;;0.68;0.40;;;17.20;74.50;;;;;;5047380;28;20029;-83
2021/05/20 17:19:01;;;;;;;0.60;0.30;;;17.30;74.20;;;;;;5042378;28;20560;-83
2021/05/20 17:21:27;;;;;;;0.50;0.30;;;17.40;73.90;;;;;;5048981;28;20029;-79
2021/05/20 17:23:52;;;;;;;0.63;0.40;;;17.40;73.90;;;;;;5045681;28;20033;-78
2021/05/20 17:26:18;;;;;;;0.80;0.40;;;17.60;73.40;;;;;;5045493;28;20048;-79
2021/05/20 17:28:45;;;;;;;0.50;0.30;;;17.60;73.30;;;;;;5063001;28;20021;-78
2021/05/20 17:31:10;;;;;;;0.80;0.40;;;17.60;72.70;;;;;;5041995;28;20041;-77
2021/05/20 17:33:36;;;;;;;0.63;0.30;;;17.50;73.50;;;;;;5053755;28;20091;-79
2021/05/20 17:36:03;;;;;;;0.68;0.50;;;17.40;73.30;;;;;;5056350;28;20045;-86
2021/05/20 17:38:31;;;;;;;0.70;0.40;;;17.30;73.80;;;;;;5051434;28;20045;-84
2021/05/20 17:40:58;;;;;;;0.70;0.40;;;17.30;74.00;;;;;;5047401;28;20085;-79
2021/05/20 17:43:26;;;;;;;0.95;0.50;;;17.30;73.70;;;;;;5043322;28;20089;-79
2021/05/20 17:45:54;;;;;;;0.52;0.30;;;17.20;74.20;;;;;;5054304;28;20031;-79
2021/05/20 17:48:27;;;;;;;0.60;0.40;;;17.30;74.20;;;;;;5048152;28;20040;-80
2021/05/20 17:50:54;;;;;;;1.00;0.40;;;17.30;74.10;;;;;;5054935;28;20540;-79
2021/05/20 17:53:24;;;;;;;0.80;0.40;;;17.30;74.20;;;;;;5053456;28;20025;-83
2021/05/20 17:55:49;;;;;;;0.60;0.30;;;17.40;74.40;;;;;;5054825;28;20017;-79
2021/05/20 17:58:15;;;;;;;0.68;0.38;;;17.30;73.90;;;;;;5051270;28;20146;-78
2021/05/20 18:00:43;;;;;;;0.90;0.50;;;17.30;74.20;;;;;;5050792;28;20021;-81
2021/05/20 18:03:09;;;;;;;0.65;0.32;;;17.30;74.60;;;;;;5049921;28;20043;-80
2021/05/20 18:05:36;;;;;;;0.73;0.40;;;17.20;74.90;;;;;;5050150;28;20032;-80
2021/05/20 18:08:07;;;;;;;0.68;0.35;;;17.30;75.10;;;;;;5047641;28;20048;-82
2021/05/20 18:10:36;;;;;;;0.40;0.30;;;17.20;74.90;;;;;;5052988;28;20017;-82
2021/05/20 18:13:19;;;;;;;0.35;0.20;;;17.10;74.60;;;;;;5049219;28;20043;-81
2021/05/20 18:23:11;;;;;;;0.63;0.35;;;17.10;75.60;;;;;;5047526;28;20085;-89
2021/05/20 18:25:37;;;;;;;0.57;0.30;;;17.10;75.40;;;;;;5047570;28;20029;-86
2021/05/20 18:28:04;;;;;;;0.80;0.40;;;17.10;75.70;;;;;;5056631;28;20029;-88
2021/05/20 18:30:32;;;;;;;0.47;0.30;;;17.00;76.00;;;;;;5045428;28;20021;-81
2021/05/20 18:32:57;;;;;;;0.38;0.20;;;17.00;76.30;;;;;;5050828;28;20026;-82
2021/05/20 18:35:24;;;;;;;0.50;0.30;;;17.00;76.00;;;;;;5048871;28;20035;-85
2021/05/20 18:37:53;;;;;;;0.28;0.20;;;17.00;76.30;;;;;;5044596;28;20033;-83
2021/05/20 18:40:19;;;;;;;0.55;0.30;;;17.00;76.30;;;;;;5053268;28;20665;-80
2021/05/20 18:42:47;;;;;;;0.52;0.30;;;17.00;76.50;;;;;;5086653;28;20048;-81
2021/05/20 18:45:15;;;;;;;0.60;0.20;;;16.90;76.70;;;;;;5044460;28;20465;-82
2021/05/20 18:47:41;;;;;;;0.50;0.22;;;17.00;76.50;;;;;;5046098;28;20044;-82
2021/05/20 18:50:10;;;;;;;0.47;0.30;;;17.00;76.60;;;;;;5062964;28;20095;-82
2021/05/20 18:52:36;;;;;;;0.40;0.28;;;16.90;76.80;;;;;;5050163;28;20025;-86
2021/05/20 18:55:05;;;;;;;0.50;0.30;;;16.90;76.80;;;;;;5048569;28;20124;-85
2021/05/20 18:57:34;;;;;;;0.47;0.22;;;16.90;76.50;;;;;;5052482;28;20045;-79
2021/05/20 19:00:00;;;;;;;0.40;0.20;;;16.70;77.10;;;;;;5059612;28;20037;-79
2021/05/20 19:02:25;;;;;;;0.65;0.38;;;16.70;77.30;;;;;;5061854;28;20036;-80
2021/05/20 19:04:54;;;;;;;0.77;0.40;;;16.50;76.70;;;;;;5050688;28;20406;-81
2021/05/20 19:07:33;;;;;;;0.70;0.35;;;16.60;77.10;;;;;;5064960;28;20316;-79
2021/05/20 19:09:59;;;;;;;1.00;0.45;;;16.50;76.90;;;;;;5051557;28;20116;-82
2021/05/20 19:12:24;;;;;;;0.90;0.50;;;16.30;76.70;;;;;;5066604;28;20167;-82
2021/05/20 19:14:50;;;;;;;0.60;0.32;;;16.40;76.70;;;;;;5060238;28;20025;-83
2021/05/20 19:17:16;;;;;;;0.70;0.40;;;16.30;76.00;;;;;;5045394;28;20024;-82
2021/05/20 19:19:48;;;;;;;0.73;0.45;;;16.30;76.00;;;;;;5056637;28;20475;-82
2021/05/20 19:25:07;;;;;;;1.00;0.52;;;16.20;76.40;;;;;;5057683;28;20040;-82
2021/05/20 19:27:33;;;;;;;0.90;0.40;;;16.10;76.30;;;;;;5054774;28;20597;-81
2021/05/20 19:29:59;;;;;;;0.93;0.50;;;16.10;76.30;;;;;;5044191;28;20413;-81
2021/05/20 19:32:26;;;;;;;1.23;0.60;;;16.10;76.30;;;;;;5048600;28;20027;-81
2021/05/20 19:34:53;;;;;;;0.60;0.40;;;16.00;76.30;;;;;;5046311;28;20021;-83
2021/05/20 19:37:22;;;;;;;0.88;0.50;;;16.00;76.00;;;;;;5055061;28;20025;-79
2021/05/20 19:39:56;;;;;;;0.90;0.60;;;16.00;75.80;;;;;;5057393;28;20454;-83
2021/05/20 19:42:23;;;;;;;1.23;0.95;;;16.00;75.20;;;;;;5056708;28;20048;-83
2021/05/20 19:44:49;;;;;;;1.10;0.60;;;16.00;75.20;;;;;;5054144;28;20079;-81
2021/05/20 19:47:16;;;;;;;1.48;0.65;;;16.00;75.20;;;;;;5051029;28;20029;-82
2021/05/20 19:52:15;;;;;;;0.85;0.50;;;15.80;74.80;;;;;;5046813;28;20029;-82
2021/05/20 20:02:44;;;;;;;0.88;0.50;;;15.80;72.50;;;;;;5048971;28;20028;-80
2021/05/20 20:05:14;;;;;;;1.10;0.70;;;15.70;71.10;;;;;;5057492;28;20071;-79
2021/05/20 20:07:56;;;;;;;0.88;0.55;;;15.60;70.10;;;;;;5044130;28;20044;-81
2021/05/20 20:10:25;;;;;;;0.95;0.60;;;15.60;69.80;;;;;;5047385;28;20051;-81
2021/05/20 20:12:55;;;;;;;1.20;0.70;;;15.60;69.60;;;;;;5055343;28;20033;-81
2021/05/20 20:15:22;;;;;;;1.30;0.80;;;15.50;69.70;;;;;;5054221;28;20028;-80
2021/05/20 20:17:55;;;;;;;0.80;0.50;;;15.60;69.50;;;;;;5052786;28;20501;-78
2021/05/20 20:23:19;;;;;;;1.10;0.60;;;15.50;70.00;;;;;;5043442;28;20128;-78
2021/05/20 20:28:29;;;;;;;0.98;0.65;;;15.40;72.30;;;;;;5050207;28;20052;-77
2021/05/20 20:30:55;;;;;;;1.10;0.80;;;15.40;72.50;;;;;;5054983;28;20456;-78
2021/05/20 20:41:14;;;;;;;1.58;0.77;;;15.20;72.00;;;;;;5054707;28;20240;-77
2021/05/20 20:43:47;;;;;;;1.33;0.80;;;15.10;72.30;;;;;;5054819;28;20025;-78
2021/05/20 20:46:15;;;;;;;1.27;0.80;;;15.20;72.30;;;;;;5054752;28;20439;-78
2021/05/20 20:48:42;;;;;;;1.92;0.80;;;15.10;72.40;;;;;;5051952;28;20021;-78
2021/05/20 20:51:10;;;;;;;1.85;0.80;;;15.10;72.20;;;;;;5056830;28;20022;-78
2021/05/20 20:53:37;;;;;;;0.98;0.55;;;15.10;72.20;;;;;;5045674;28;20120;-77
2021/05/20 20:56:04;;;;;;;1.00;0.52;;;15.10;72.40;;;;;;5055253;28;20029;-78
2021/05/20 20:58:30;;;;;;;1.55;0.90;;;15.10;71.80;;;;;;5054956;28;20021;-77
2021/05/20 21:00:56;;;;;;;1.15;0.63;;;15.10;71.80;;;;;;5055015;28;20025;-77
2021/05/20 21:03:25;;;;;;;1.27;0.77;;;15.00;72.00;;;;;;5062831;28;20075;-77
2021/05/20 21:05:51;;;;;;;1.13;0.60;;;15.00;72.00;;;;;;5053553;28;20059;-78
2021/05/20 21:08:17;;;;;;;1.00;0.65;;;15.00;71.80;;;;;;5055966;28;20021;-78
2021/05/20 21:10:43;;;;;;;1.38;0.65;;;14.90;72.00;;;;;;5054236;28;20067;-77
2021/05/20 21:13:09;;;;;;;1.50;0.65;;;14.90;72.10;;;;;;5056123;28;20033;-77
2021/05/20 21:15:35;;;;;;;1.30;0.70;;;14.80;71.80;;;;;;5055097;28;20040;-78
2021/05/20 21:18:01;;;;;;;1.00;0.60;;;14.80;72.00;;;;;;5056136;28;20028;-77
2021/05/20 21:20:26;;;;;;;0.73;0.50;;;14.70;72.20;;;;;;5054927;28;20419;-78
2021/05/20 21:22:52;;;;;;;1.02;0.80;;;14.60;72.60;;;;;;5054650;28;20031;-78
2021/05/20 21:25:18;;;;;;;1.00;0.77;;;14.60;72.40;;;;;;5054177;28;20028;-77
2021/05/20 21:27:44;;;;;;;1.50;1.00;;;14.60;72.40;;;;;;5051037;28;20064;-78
2021/05/20 21:30:10;;;;;;;1.48;0.70;;;14.60;72.30;;;;;;5070178;28;20071;-78
2021/05/20 21:32:36;;;;;;;1.17;0.70;;;14.70;72.40;;;;;;5049305;28;20029;-78
2021/05/20 21:35:02;;;;;;;1.73;0.77;;;14.60;72.10;;;;;;5051528;28;20048;-78
2021/05/20 21:37:28;;;;;;;1.33;0.75;;;14.60;72.70;;;;;;5055871;28;20372;-78
2021/05/20 21:39:53;;;;;;;0.98;0.68;;;14.50;72.50;;;;;;5055752;28;20048;-78
2021/05/20 21:42:19;;;;;;;1.85;1.00;;;14.50;72.50;;;;;;5055685;28;20852;-78
2021/05/20 21:44:44;;;;;;;1.27;0.70;;;14.40;72.70;;;;;;5053279;28;20024;-78
2021/05/20 21:47:10;;;;;;;1.13;0.75;;;14.50;72.60;;;;;;5055725;28;20060;-77
2021/05/20 21:49:38;;;;;;;1.33;0.80;;;14.40;72.60;;;;;;5050538;28;20018;-78
2021/05/20 21:52:04;;;;;;;1.52;0.88;;;14.40;72.80;;;;;;5036039;28;20104;-78
2021/05/20 21:54:32;;;;;;;0.93;0.60;;;14.40;73.00;;;;;;5046434;28;20120;-77
2021/05/20 21:56:58;;;;;;;1.60;0.80;;;14.20;73.10;;;;;;5035868;28;20519;-77
2021/05/20 21:59:24;;;;;;;1.40;0.73;;;14.20;73.40;;;;;;5038910;28;20025;-78
2021/05/20 22:01:49;;;;;;;1.08;0.80;;;14.20;73.50;;;;;;5056017;28;20107;-77
2021/05/20 22:04:15;;;;;;;1.60;0.95;;;14.20;73.80;;;;;;5055168;28;20021;-78
2021/05/20 22:06:41;;;;;;;1.23;0.70;;;14.20;73.30;;;;;;5038129;28;20037;-78
2021/05/20 22:09:06;;;;;;;1.25;0.70;;;14.20;73.30;;;;;;5034553;28;20045;-78
2021/05/20 22:11:46;;;;;;;1.60;0.80;;;14.20;73.10;;;;;;5035429;28;20432;-78
2021/05/20 22:16:40;;;;;;;1.35;0.60;;;14.20;73.30;;;;;;5055674;28;20840;-78
2021/05/20 22:19:06;;;;;;;1.25;0.50;;;14.20;73.30;;;;;;5053850;28;20044;-78
2021/05/20 22:21:31;;;;;;;1.90;0.98;;;14.20;73.80;;;;;;5042227;28;20109;-78
2021/05/20 22:23:57;;;;;;;1.10;0.60;;;14.20;73.10;;;;;;5054299;28;20167;-78
2021/05/20 22:34:01;;;;;;;1.15;0.82;;;14.20;73.50;;;;;;5055520;28;20025;-78
2021/05/20 22:36:27;;;;;;;1.58;0.90;;;14.10;73.70;;;;;;5054112;28;20021;-78
2021/05/20 22:38:53;;;;;;;1.75;0.98;;;14.10;73.90;;;;;;5054121;28;20028;-78
2021/05/20 22:41:19;;;;;;;0.98;0.60;;;14.10;74.00;;;;;;5054922;28;20047;-78
2021/05/20 22:43:45;;;;;;;1.20;0.70;;;13.90;73.90;;;;;;5047973;28;20541;-77
2021/05/20 22:46:13;;;;;;;1.25;0.70;;;14.00;74.00;;;;;;5035311;28;20083;-78
2021/05/20 22:48:38;;;;;;;1.52;0.93;;;14.00;73.90;;;;;;5035223;28;20087;-77
2021/05/20 22:51:05;;;;;;;1.10;0.63;;;14.10;73.80;;;;;;5035622;28;20021;-78
2021/05/20 22:53:31;;;;;;;1.33;0.77;;;14.00;74.00;;;;;;5033499;28;20463;-78
2021/05/20 22:55:56;;;;;;;1.70;0.80;;;14.00;73.90;;;;;;5035267;28;20022;-78
2021/05/20 22:58:22;;;;;;;1.33;0.70;;;14.00;74.00;;;;;;5035068;28;20716;-77
2021/05/20 23:00:47;;;;;;;1.30;0.90;;;14.00;73.90;;;;;;5039910;28;20048;-78
2021/05/20 23:03:13;;;;;;;1.05;0.82;;;14.00;74.30;;;;;;5053145;28;20055;-77
2021/05/20 23:05:39;;;;;;;1.55;0.90;;;14.00;74.20;;;;;;5053416;28;20485;-78
2021/05/20 23:08:05;;;;;;;1.95;1.02;;;14.00;74.10;;;;;;5070442;28;20029;-77
2021/05/20 23:10:31;;;;;;;1.30;0.80;;;14.00;74.20;;;;;;5049088;28;20519;-78
2021/05/20 23:12:57;;;;;;;1.48;0.63;;;14.00;74.00;;;;;;5035095;28;20068;-77
2021/05/20 23:15:23;;;;;;;1.30;0.75;;;14.10;74.20;;;;;;5035062;28;20075;-77
2021/05/20 23:17:49;;;;;;;1.02;0.70;;;14.10;74.30;;;;;;5035979;28;20029;-77
2021/05/20 23:20:17;;;;;;;1.60;0.70;;;14.20;74.00;;;;;;5054838;28;20041;-77
2021/05/20 23:22:42;;;;;;;1.00;0.63;;;14.10;73.90;;;;;;5043847;28;20071;-77
2021/05/20 23:25:09;;;;;;;0.98;0.50;;;14.10;73.90;;;;;;5033676;28;20029;-78
2021/05/20 23:27:34;;;;;;;1.55;0.70;;;14.00;74.30;;;;;;5049566;28;20052;-77
2021/05/20 23:30:00;;;;;;;1.50;0.70;;;14.00;74.40;;;;;;5036783;28;20434;-77
2021/05/20 23:32:26;;;;;;;1.20;0.70;;;14.00;74.40;;;;;;5051952;28;20395;-78
2021/05/20 23:34:51;;;;;;;1.88;0.80;;;14.00;74.50;;;;;;5054809;28;20025;-78
2021/05/20 23:37:17;;;;;;;1.30;0.80;;;14.00;74.30;;;;;;5035859;28;20032;-77
2021/05/20 23:39:45;;;;;;;1.80;0.70;;;13.90;74.40;;;;;;5034786;28;20064;-78
2021/05/20 23:42:12;;;;;;;1.70;0.90;;;13.90;74.50;;;;;;5034733;28;20048;-77
2021/05/20 23:44:38;;;;;;;1.73;1.10;;;14.00;74.30;;;;;;5034709;28;20092;-78
2021/05/20 23:47:03;;;;;;;1.30;0.77;;;14.00;74.30;;;;;;5034723;28;20475;-77
2021/05/20 23:49:29;;;;;;;1.92;0.73;;;14.00;74.30;;;;;;5035478;28;20090;-77
2021/05/20 23:51:55;;;;;;;1.55;0.90;;;14.00;74.10;;;;;;5038317;28;20029;-78
2021/05/20 23:54:21;;;;;;;2.17;0.95;;;14.00;73.90;;;;;;5038293;28;20021;-77
2021/05/20 23:56:47;;;;;;;1.40;0.80;;;13.90;74.50;;;;;;5037226;28;20025;-78
2021/05/20 23:59:13;;;;;;;2.10;0.80;;;13.90;74.20;;;;;;5038338;28;20024;-77
